Main page
METAR-TAF:

METAR-TAF

Airports :

Beirut Air Base

Beirut, Lebanon

latitude: 33-49N, longitude: 035-29E, elevation: 29 m

Current weather observation

The report was made 29 minutes ago, at 23:00 UTC
Wind 5 kt from the Southeast
Temperature 14°C
Humidity 72%
Pressure 1018 hPa
Visibility: 8000 m
Broken clouds at a height of 11000 ft
light rain

METAR: OLBA 212300Z 14005KT 8000 -RA BKN110 14/09 Q1018 NOSIG

Time: 01:29 (23:29 UTC)

Forecast

The report was made 13 hours and 29 minutes ago, at 10:00 UTC
Forecast valid from 21 at 12 UTC to 22 at 18 UTC
Wind 5 kt from the North/Northwest
Visibility: 8000 m
Scattered clouds at a height of 8000 ft
Becoming
from 22 at 00 UTC to 22 at 03 UTC
Wind 20 kt from the North/Northeast
Becoming
from 22 at 06 UTC to 22 at 09 UTC
Broken clouds at a height of 7000 ft
Becoming
from 22 at 09 UTC to 22 at 12 UTC
Wind 5 kt from the North/Northwest

TAF: OLBA 211000Z 2112/2218 33005KT 8000 SCT080 BECMG 2200/2203 02020KT BECMG 2206/2209 BKN070 BECMG 2209/2212 33005KT

Weather observations and forecasts of more than 4000 airports (METAR and TAF reports).

The available stations are represented by yellow and red dots on the map.

Hover mouse over dot to see the name of the station.

Then click to see weather observations and forecasts.

To change the map : click on the green buttons with a black cross to zoom in, on the green button with a dash to zoom out, or on the green arrows for adjacent maps.


METAR-TAF: